Time;durP1;ratioP1;P1;durP2;ratioP2;P2;SDS_P1;SDS_P2;PMS_P1;PMS_P2;Temp;Humidity;BMP_temperature;BMP_pressure;BME280_temperature;BME280_humidity;BME280_pressure;Samples;Min_cycle;Max_cycle;Signal;HPM_P1;HPM_P2
2024/02/27 00:02:13;;;;;;;17.48;9.27;;;2.00;99.90;;;;;;5108705;28;20047;-62
2024/02/27 00:04:46;;;;;;;13.05;7.40;;;2.00;99.90;;;;;;5110076;28;20075;-69
2024/02/27 00:07:13;;;;;;;20.50;8.38;;;2.10;99.90;;;;;;5107812;28;20047;-62
2024/02/27 00:09:44;;;;;;;16.88;7.25;;;2.00;99.90;;;;;;5109674;28;20040;-62
2024/02/27 00:12:11;;;;;;;25.30;8.18;;;2.00;99.90;;;;;;5105320;28;20105;-63
2024/02/27 00:14:38;;;;;;;12.63;7.90;;;2.00;99.90;;;;;;5108284;28;20160;-68
2024/02/27 00:17:05;;;;;;;17.77;7.80;;;2.00;99.90;;;;;;5106859;28;20035;-72
2024/02/27 00:19:32;;;;;;;9.60;6.22;;;2.00;99.90;;;;;;5109136;28;20108;-65
2024/02/27 00:21:59;;;;;;;9.90;6.18;;;2.10;99.90;;;;;;5106680;28;20124;-62
2024/02/27 00:24:26;;;;;;;16.75;7.30;;;2.00;99.90;;;;;;5106437;28;20032;-70
2024/02/27 00:26:53;;;;;;;12.00;6.88;;;2.00;99.90;;;;;;5105517;28;20051;-63
2024/02/27 00:29:21;;;;;;;11.40;6.65;;;2.00;99.90;;;;;;5106210;28;20055;-63
2024/02/27 00:31:48;;;;;;;14.65;5.68;;;2.00;99.90;;;;;;5108261;28;20054;-73
2024/02/27 00:34:15;;;;;;;11.57;7.45;;;2.00;99.90;;;;;;5108933;28;20609;-61
2024/02/27 00:36:43;;;;;;;36.67;7.25;;;2.00;99.90;;;;;;5105465;28;20040;-62
2024/02/27 00:39:10;;;;;;;35.92;8.45;;;1.90;99.90;;;;;;5108167;28;20062;-70
2024/02/27 00:41:41;;;;;;;10.02;5.15;;;1.90;99.90;;;;;;5108681;28;20055;-66
2024/02/27 00:44:09;;;;;;;26.70;7.50;;;1.90;99.90;;;;;;5106165;28;20047;-63
2024/02/27 00:46:37;;;;;;;74.68;11.50;;;1.80;99.90;;;;;;5108344;28;20538;-65
2024/02/27 00:49:04;;;;;;;21.65;7.57;;;1.80;99.90;;;;;;5090680;28;20035;-61
2024/02/27 00:51:31;;;;;;;91.40;13.70;;;1.80;99.90;;;;;;5108768;28;20433;-63
2024/02/27 00:53:59;;;;;;;27.15;7.55;;;1.80;99.90;;;;;;5109137;28;20050;-60
2024/02/27 00:56:26;;;;;;;39.33;7.53;;;1.80;99.90;;;;;;5106353;28;20682;-61
2024/02/27 00:58:53;;;;;;;16.73;6.25;;;1.80;99.90;;;;;;5107727;28;20040;-62
2024/02/27 01:01:20;;;;;;;21.05;5.10;;;1.80;99.90;;;;;;5107099;28;20048;-61
2024/02/27 01:03:47;;;;;;;46.95;8.02;;;1.70;99.90;;;;;;5108285;28;20043;-64
2024/02/27 01:06:14;;;;;;;65.43;9.15;;;1.70;99.90;;;;;;5105014;28;20487;-62
2024/02/27 01:08:41;;;;;;;113.15;13.98;;;1.70;99.90;;;;;;5104680;28;20053;-61
2024/02/27 01:11:08;;;;;;;25.70;6.65;;;1.70;99.90;;;;;;5107013;28;20043;-61
2024/02/27 01:13:35;;;;;;;149.95;17.10;;;1.70;99.90;;;;;;5108525;28;20093;-67
2024/02/27 01:16:03;;;;;;;25.50;6.03;;;1.70;99.90;;;;;;5105499;28;20054;-61
2024/02/27 01:18:30;;;;;;;34.90;7.78;;;1.70;99.90;;;;;;5111192;28;20036;-63
2024/02/27 01:20:58;;;;;;;68.05;10.63;;;1.70;99.90;;;;;;5112425;28;20677;-64
2024/02/27 01:23:25;;;;;;;43.17;8.52;;;1.60;99.90;;;;;;5107501;28;20104;-64
2024/02/27 01:25:52;;;;;;;60.13;10.40;;;1.70;99.90;;;;;;5106873;28;20036;-61
2024/02/27 01:28:19;;;;;;;20.45;6.65;;;1.70;99.90;;;;;;5110283;28;20051;-63
2024/02/27 01:30:46;;;;;;;43.45;7.80;;;1.70;99.90;;;;;;5105679;28;20573;-64
2024/02/27 01:33:13;;;;;;;29.90;7.70;;;1.60;99.90;;;;;;5110072;28;20044;-61
2024/02/27 01:35:40;;;;;;;117.55;15.07;;;1.60;99.90;;;;;;5108835;28;20075;-64
2024/02/27 01:38:07;;;;;;;87.70;12.38;;;1.60;99.90;;;;;;5109624;28;20056;-70
2024/02/27 01:40:34;;;;;;;30.73;7.72;;;1.60;99.90;;;;;;5111949;28;20096;-65
2024/02/27 01:43:01;;;;;;;31.05;8.77;;;1.60;99.90;;;;;;5111849;28;20044;-66
2024/02/27 01:45:29;;;;;;;87.55;10.95;;;1.60;99.90;;;;;;5111524;28;20036;-64
2024/02/27 01:47:56;;;;;;;13.60;6.82;;;1.50;99.90;;;;;;5107539;28;20051;-62
2024/02/27 01:50:24;;;;;;;55.35;8.50;;;1.50;99.90;;;;;;5109236;28;20135;-63
2024/02/27 01:52:52;;;;;;;70.40;9.70;;;1.50;99.90;;;;;;5109024;28;20097;-66
2024/02/27 01:55:19;;;;;;;37.22;9.20;;;1.50;99.90;;;;;;5111773;28;20557;-63
2024/02/27 01:57:48;;;;;;;54.15;8.43;;;1.50;99.90;;;;;;5111476;28;20138;-63
2024/02/27 02:00:16;;;;;;;77.32;11.15;;;1.50;99.90;;;;;;5110164;28;20039;-68
2024/02/27 02:02:44;;;;;;;68.65;9.70;;;1.50;99.90;;;;;;5109919;28;20128;-65
2024/02/27 02:05:12;;;;;;;23.50;6.13;;;1.50;99.90;;;;;;5110428;28;20047;-61
2024/02/27 02:07:40;;;;;;;17.77;6.57;;;1.40;99.90;;;;;;5110550;28;20039;-66
2024/02/27 02:10:12;;;;;;;45.15;7.40;;;1.40;99.90;;;;;;5106248;28;20092;-62
2024/02/27 02:12:40;;;;;;;49.78;6.45;;;1.40;99.90;;;;;;5107371;28;20048;-63
2024/02/27 02:15:07;;;;;;;18.52;5.90;;;1.40;99.90;;;;;;5107937;28;20040;-63
2024/02/27 02:17:34;;;;;;;17.45;5.30;;;1.30;99.90;;;;;;5110824;28;20043;-68
2024/02/27 02:20:05;;;;;;;60.53;8.77;;;1.30;99.90;;;;;;5112133;28;20043;-62
2024/02/27 02:22:33;;;;;;;46.35;7.82;;;1.20;99.90;;;;;;5111411;28;20048;-63
2024/02/27 02:25:01;;;;;;;39.92;7.75;;;1.30;99.90;;;;;;5111070;28;20095;-62
2024/02/27 02:27:31;;;;;;;37.42;8.75;;;1.30;99.90;;;;;;5093051;28;20043;-65
2024/02/27 02:29:58;;;;;;;66.78;9.20;;;1.30;99.90;;;;;;5108970;28;20115;-61
2024/02/27 02:32:25;;;;;;;33.58;8.10;;;1.20;99.90;;;;;;5091888;28;20044;-63
2024/02/27 02:34:52;;;;;;;36.50;7.18;;;1.20;99.90;;;;;;5110707;28;20071;-64
2024/02/27 02:37:19;;;;;;;35.50;7.00;;;1.20;99.90;;;;;;5110463;28;20670;-62
2024/02/27 02:39:45;;;;;;;10.60;5.43;;;1.20;99.90;;;;;;5110350;28;20051;-63
2024/02/27 02:42:14;;;;;;;37.90;6.88;;;1.20;99.90;;;;;;5109166;28;20126;-66
2024/02/27 02:44:41;;;;;;;28.95;5.70;;;1.20;99.90;;;;;;5108614;28;20063;-66
2024/02/27 02:47:08;;;;;;;33.63;6.72;;;1.20;99.90;;;;;;5108157;28;20047;-63
2024/02/27 02:49:35;;;;;;;37.30;6.28;;;1.20;99.90;;;;;;5110861;28;20445;-63
2024/02/27 02:52:06;;;;;;;31.83;6.03;;;1.20;99.90;;;;;;5110904;28;20050;-63
2024/02/27 02:54:33;;;;;;;19.35;5.50;;;1.20;99.90;;;;;;5109316;28;20062;-62
2024/02/27 02:57:00;;;;;;;10.57;4.32;;;1.20;99.90;;;;;;5109120;28;20484;-63
2024/02/27 02:59:27;;;;;;;18.73;5.65;;;1.10;99.90;;;;;;5107119;28;20078;-64
2024/02/27 03:01:55;;;;;;;16.08;5.00;;;1.10;99.90;;;;;;5109847;28;20100;-61
2024/02/27 03:04:22;;;;;;;15.57;4.82;;;1.10;99.90;;;;;;5103100;28;20040;-64
2024/02/27 03:06:49;;;;;;;18.73;4.40;;;1.00;99.90;;;;;;5105410;28;20512;-65
2024/02/27 03:09:16;;;;;;;39.03;7.72;;;1.00;99.90;;;;;;5108089;28;20123;-61
2024/02/27 03:11:43;;;;;;;25.50;6.43;;;1.00;99.90;;;;;;5107935;28;20036;-63
2024/02/27 03:14:10;;;;;;;39.95;6.70;;;1.00;99.90;;;;;;5109098;28;20054;-69
2024/02/27 03:16:37;;;;;;;19.88;4.95;;;1.10;99.90;;;;;;5106197;28;20035;-67
2024/02/27 03:19:04;;;;;;;22.10;5.43;;;1.10;99.90;;;;;;5107838;28;20137;-63
2024/02/27 03:21:32;;;;;;;11.23;4.75;;;1.10;99.90;;;;;;5109854;28;20157;-63
2024/02/27 03:23:59;;;;;;;26.00;5.47;;;1.10;99.90;;;;;;5109256;28;20131;-64
2024/02/27 03:26:26;;;;;;;29.50;5.55;;;1.10;99.90;;;;;;5109358;28;20040;-64
2024/02/27 03:28:53;;;;;;;43.22;6.68;;;1.10;99.90;;;;;;5106598;28;20093;-64
2024/02/27 03:31:20;;;;;;;13.48;5.25;;;1.10;99.90;;;;;;5110344;28;20043;-60
2024/02/27 03:33:47;;;;;;;23.10;5.82;;;1.10;99.90;;;;;;5106949;28;20499;-67
2024/02/27 03:36:14;;;;;;;12.48;4.82;;;1.10;99.90;;;;;;5106995;28;20065;-64
2024/02/27 03:38:42;;;;;;;7.78;4.65;;;1.10;99.90;;;;;;5106449;28;20422;-63
2024/02/27 03:41:13;;;;;;;10.90;4.25;;;1.10;99.90;;;;;;5106990;28;20050;-60
2024/02/27 03:43:41;;;;;;;24.55;5.68;;;1.10;99.90;;;;;;5110439;28;20043;-66
2024/02/27 03:46:11;;;;;;;7.07;3.85;;;1.00;99.90;;;;;;5109917;28;20038;-63
2024/02/27 03:48:38;;;;;;;5.75;4.47;;;1.10;99.90;;;;;;5108943;28;20043;-68
2024/02/27 03:51:05;;;;;;;29.75;6.22;;;1.10;99.90;;;;;;5109618;28;20043;-64
2024/02/27 03:53:32;;;;;;;11.32;5.47;;;1.00;99.90;;;;;;5108652;28;20050;-61
2024/02/27 03:55:59;;;;;;;21.25;5.88;;;1.10;99.90;;;;;;5107926;28;20437;-61
2024/02/27 03:58:26;;;;;;;17.25;5.15;;;1.00;99.90;;;;;;5088700;28;20108;-66
2024/02/27 04:00:53;;;;;;;14.98;5.03;;;1.00;99.90;;;;;;5109356;28;20039;-60
2024/02/27 04:03:20;;;;;;;20.52;5.28;;;1.00;99.90;;;;;;5109024;28;20672;-64
2024/02/27 04:05:47;;;;;;;8.95;5.13;;;1.00;99.90;;;;;;5108112;28;20039;-62
2024/02/27 04:08:14;;;;;;;14.68;4.82;;;0.90;99.90;;;;;;5107905;28;20048;-66
2024/02/27 04:10:41;;;;;;;11.93;4.55;;;0.90;99.90;;;;;;5106505;28;20143;-66
2024/02/27 04:13:08;;;;;;;7.60;3.42;;;0.90;99.90;;;;;;5108669;28;20049;-62
2024/02/27 04:15:35;;;;;;;12.10;4.35;;;0.90;99.90;;;;;;5108672;28;20047;-67
2024/02/27 04:18:03;;;;;;;6.70;4.00;;;0.90;99.90;;;;;;5108254;28;20546;-67
2024/02/27 04:20:30;;;;;;;12.35;5.63;;;0.90;99.90;;;;;;5101934;28;20112;-66
2024/02/27 04:22:57;;;;;;;17.13;5.88;;;0.90;99.90;;;;;;5109310;28;20100;-60
2024/02/27 04:25:24;;;;;;;15.98;4.72;;;0.90;99.90;;;;;;5105973;28;20857;-65
2024/02/27 04:27:51;;;;;;;10.30;3.47;;;0.90;99.90;;;;;;5108165;28;20070;-66
2024/02/27 04:30:18;;;;;;;15.10;5.00;;;0.90;99.90;;;;;;5106155;28;20043;-64
2024/02/27 04:32:45;;;;;;;18.08;4.75;;;0.80;99.90;;;;;;5107986;28;20071;-63
2024/02/27 04:35:14;;;;;;;17.77;4.38;;;0.70;99.90;;;;;;5107121;28;20039;-64
2024/02/27 04:37:41;;;;;;;13.85;4.07;;;0.70;99.90;;;;;;5107509;28;20056;-65
2024/02/27 04:40:09;;;;;;;27.80;5.68;;;0.60;99.90;;;;;;5104744;28;20071;-63
2024/02/27 04:42:36;;;;;;;8.27;3.65;;;0.60;99.90;;;;;;5108913;28;20046;-61
2024/02/27 04:45:03;;;;;;;17.25;4.20;;;0.60;99.90;;;;;;5107632;28;20054;-68
2024/02/27 04:47:30;;;;;;;10.93;3.60;;;0.60;99.90;;;;;;5104451;28;20399;-62
2024/02/27 04:49:58;;;;;;;11.13;4.80;;;0.60;99.90;;;;;;5108214;28;20127;-61
2024/02/27 04:52:25;;;;;;;9.77;4.22;;;0.70;99.90;;;;;;5093250;28;20105;-61
2024/02/27 04:54:51;;;;;;;19.00;6.00;;;0.70;99.90;;;;;;5115203;28;20051;-66
2024/02/27 04:57:20;;;;;;;6.13;3.80;;;0.70;99.90;;;;;;5111989;28;20089;-65
2024/02/27 04:59:47;;;;;;;20.60;5.28;;;0.70;99.90;;;;;;5115736;28;20048;-60
2024/02/27 05:02:14;;;;;;;6.18;4.03;;;0.70;99.90;;;;;;5111579;28;20062;-65
2024/02/27 05:04:41;;;;;;;9.52;3.78;;;0.70;99.90;;;;;;5115742;28;20048;-62
2024/02/27 05:07:08;;;;;;;10.68;3.78;;;0.70;99.90;;;;;;5114352;28;20035;-65
2024/02/27 05:09:35;;;;;;;7.80;3.75;;;0.70;99.90;;;;;;5114500;28;20047;-70
2024/02/27 05:12:02;;;;;;;11.48;4.30;;;0.60;99.90;;;;;;5111749;28;20043;-62
2024/02/27 05:14:29;;;;;;;21.33;4.82;;;0.60;99.90;;;;;;5096171;28;20052;-73
2024/02/27 05:16:56;;;;;;;29.83;4.90;;;0.50;99.90;;;;;;5078589;28;20039;-70
2024/02/27 05:19:23;;;;;;;10.30;4.15;;;0.50;99.90;;;;;;5079724;28;20044;-61
2024/02/27 05:21:50;;;;;;;14.52;4.07;;;0.50;99.90;;;;;;5080071;28;20049;-74
2024/02/27 05:24:17;;;;;;;13.48;3.53;;;0.50;99.90;;;;;;5060897;28;20361;-74
2024/02/27 05:26:44;;;;;;;10.90;3.75;;;0.50;99.90;;;;;;5109035;28;20079;-63
2024/02/27 05:29:11;;;;;;;11.25;3.72;;;0.40;99.90;;;;;;5094514;28;20032;-74
2024/02/27 05:31:38;;;;;;;9.85;3.35;;;0.40;99.90;;;;;;5059059;28;20052;-67
2024/02/27 05:34:05;;;;;;;10.30;4.57;;;0.40;99.90;;;;;;5077776;28;20059;-61
2024/02/27 05:36:33;;;;;;;42.35;6.82;;;0.40;99.90;;;;;;5092844;27;20049;-75
2024/02/27 05:39:00;;;;;;;21.23;5.30;;;0.40;99.90;;;;;;5080615;28;20147;-65
2024/02/27 05:41:27;;;;;;;8.82;3.63;;;0.50;99.90;;;;;;5107684;28;20071;-61
2024/02/27 05:43:54;;;;;;;6.45;3.63;;;0.40;99.90;;;;;;5109418;28;20044;-66
2024/02/27 05:46:21;;;;;;;11.60;3.50;;;0.40;99.90;;;;;;5108514;28;20051;-68
2024/02/27 05:48:48;;;;;;;20.63;5.03;;;0.50;99.90;;;;;;5113900;28;20039;-61
2024/02/27 05:51:15;;;;;;;18.10;5.57;;;0.40;99.90;;;;;;5112885;28;20562;-61
2024/02/27 05:53:43;;;;;;;8.88;3.90;;;0.40;99.90;;;;;;5114169;28;20071;-61
2024/02/27 05:56:10;;;;;;;6.57;4.38;;;0.40;99.90;;;;;;5108388;28;20126;-66
2024/02/27 05:58:37;;;;;;;10.70;5.05;;;0.40;99.90;;;;;;5114412;28;20071;-65
2024/02/27 06:01:04;;;;;;;8.65;4.80;;;0.40;99.90;;;;;;5107513;28;20599;-63
2024/02/27 06:03:31;;;;;;;7.03;4.03;;;0.40;99.90;;;;;;5111865;28;20047;-67
2024/02/27 06:06:00;;;;;;;8.63;4.40;;;0.40;99.90;;;;;;5104920;28;20109;-61
2024/02/27 06:08:27;;;;;;;12.57;3.90;;;0.40;99.90;;;;;;5104497;28;20399;-61
2024/02/27 06:10:54;;;;;;;16.23;4.22;;;0.40;99.90;;;;;;5109588;28;20053;-64
2024/02/27 06:13:21;;;;;;;10.55;4.40;;;0.50;99.90;;;;;;5107020;28;20047;-62
2024/02/27 06:15:48;;;;;;;7.43;3.80;;;0.40;99.90;;;;;;5108096;28;20077;-61
2024/02/27 06:18:15;;;;;;;8.63;4.38;;;0.50;99.90;;;;;;5107820;28;20044;-61
2024/02/27 06:23:31;;;;;;;6.97;4.30;;;0.50;99.90;;;;;;5110798;28;20486;-61
2024/02/27 06:25:58;;;;;;;15.10;5.27;;;0.50;99.90;;;;;;5106126;28;20100;-62
2024/02/27 06:28:25;;;;;;;12.10;4.72;;;0.50;99.90;;;;;;5106332;28;20304;-63
2024/02/27 06:30:52;;;;;;;9.68;4.18;;;0.50;99.90;;;;;;5108426;28;20118;-60
2024/02/27 06:33:19;;;;;;;5.32;3.90;;;0.50;99.90;;;;;;5109025;28;20131;-61
2024/02/27 06:35:46;;;;;;;8.60;5.15;;;0.60;99.90;;;;;;5108931;28;20051;-62
2024/02/27 06:38:13;;;;;;;7.32;4.30;;;0.60;99.90;;;;;;5108865;28;20052;-62
2024/02/27 06:40:43;;;;;;;8.50;4.30;;;0.60;99.90;;;;;;5106151;28;20547;-64
2024/02/27 06:43:10;;;;;;;7.60;5.43;;;0.60;99.90;;;;;;5108952;28;20534;-65
2024/02/27 06:45:37;;;;;;;7.03;5.18;;;0.60;99.90;;;;;;5105332;28;20067;-63
2024/02/27 06:48:04;;;;;;;6.43;3.30;;;0.70;99.90;;;;;;5110847;28;20071;-61
2024/02/27 06:50:31;;;;;;;9.75;4.00;;;0.70;99.90;;;;;;5109377;28;20050;-62
2024/02/27 06:52:59;;;;;;;7.13;4.32;;;0.70;99.90;;;;;;5107955;28;20047;-61
2024/02/27 06:55:26;;;;;;;10.65;4.80;;;0.70;99.90;;;;;;5106574;28;20119;-63
2024/02/27 06:57:53;;;;;;;15.63;4.82;;;0.70;99.90;;;;;;5108571;28;20036;-62
2024/02/27 07:00:20;;;;;;;14.10;5.15;;;0.80;99.90;;;;;;5104185;28;20096;-62
2024/02/27 07:02:48;;;;;;;7.80;4.30;;;0.80;99.90;;;;;;5106979;28;20406;-61
2024/02/27 07:05:17;;;;;;;6.90;4.00;;;0.80;99.90;;;;;;5106487;28;20043;-65
2024/02/27 07:07:44;;;;;;;9.90;5.88;;;0.80;99.90;;;;;;5107768;28;20039;-60
2024/02/27 07:10:13;;;;;;;8.98;5.00;;;0.80;99.90;;;;;;5106433;28;20047;-63
2024/02/27 07:12:44;;;;;;;8.65;4.10;;;0.90;99.90;;;;;;5105707;28;20036;-64
2024/02/27 07:15:11;;;;;;;17.35;5.20;;;0.90;99.90;;;;;;5108959;28;20075;-67
2024/02/27 07:17:38;;;;;;;16.20;6.30;;;0.90;99.90;;;;;;5107884;28;20123;-64
2024/02/27 07:20:08;;;;;;;12.25;5.57;;;0.90;99.90;;;;;;5110234;28;20048;-61
2024/02/27 07:22:36;;;;;;;7.85;4.50;;;0.90;99.90;;;;;;5109653;28;20040;-63
2024/02/27 07:25:03;;;;;;;11.07;5.55;;;0.90;99.90;;;;;;5108112;28;20067;-63
2024/02/27 07:27:30;;;;;;;6.28;5.03;;;0.90;99.90;;;;;;5108683;28;20039;-61
2024/02/27 07:29:57;;;;;;;14.93;6.22;;;1.00;99.90;;;;;;5106587;28;20071;-61
2024/02/27 07:32:24;;;;;;;9.50;5.55;;;1.00;99.90;;;;;;5106086;28;20043;-66
2024/02/27 07:34:51;;;;;;;14.50;5.32;;;1.00;99.90;;;;;;5109967;28;20044;-64
2024/02/27 07:37:18;;;;;;;9.00;5.35;;;1.00;99.90;;;;;;5109867;28;20490;-62
2024/02/27 07:39:45;;;;;;;9.38;5.72;;;1.10;99.90;;;;;;5107388;28;20047;-70
2024/02/27 07:42:12;;;;;;;11.35;6.07;;;1.10;99.90;;;;;;5110633;28;20047;-63
2024/02/27 07:44:39;;;;;;;9.63;6.10;;;1.20;99.90;;;;;;5110311;28;20126;-64
2024/02/27 07:47:06;;;;;;;8.75;5.72;;;1.20;99.90;;;;;;5104974;28;20044;-63
2024/02/27 07:49:33;;;;;;;11.05;5.57;;;1.20;99.90;;;;;;5102500;28;20044;-67
2024/02/27 07:52:00;;;;;;;11.85;5.75;;;1.30;99.90;;;;;;5106192;28;20475;-62
2024/02/27 07:54:27;;;;;;;14.02;6.97;;;1.30;99.90;;;;;;5108726;28;20104;-65
2024/02/27 07:56:54;;;;;;;12.10;6.88;;;1.30;99.90;;;;;;5106809;28;20478;-61
2024/02/27 07:59:21;;;;;;;10.88;5.97;;;1.30;99.90;;;;;;5109032;28;20055;-65
2024/02/27 08:01:48;;;;;;;12.65;7.10;;;1.40;99.90;;;;;;5108434;28;20097;-62
2024/02/27 08:04:15;;;;;;;11.27;6.90;;;1.40;99.90;;;;;;5104838;28;20055;-61
2024/02/27 08:06:43;;;;;;;10.00;6.82;;;1.40;99.90;;;;;;5107667;28;20655;-62
2024/02/27 08:09:10;;;;;;;10.60;6.85;;;1.40;99.90;;;;;;5105660;28;20051;-65
2024/02/27 08:11:37;;;;;;;9.48;6.40;;;1.50;99.90;;;;;;5109530;28;20127;-66
2024/02/27 08:14:04;;;;;;;10.35;5.63;;;1.50;99.90;;;;;;5108380;28;20053;-61
2024/02/27 08:16:31;;;;;;;14.57;6.55;;;1.60;99.90;;;;;;5109102;28;20039;-63
2024/02/27 08:18:59;;;;;;;12.35;7.53;;;1.60;99.90;;;;;;5109299;28;20598;-63
2024/02/27 08:21:26;;;;;;;12.55;8.15;;;1.60;99.90;;;;;;5107129;28;20093;-61
2024/02/27 08:23:53;;;;;;;12.65;7.68;;;1.60;99.90;;;;;;5109188;28;20394;-68
2024/02/27 08:26:20;;;;;;;10.98;6.85;;;1.60;99.90;;;;;;5105536;28;20527;-63
2024/02/27 08:28:47;;;;;;;14.20;8.10;;;1.60;99.90;;;;;;5107407;28;20097;-61
2024/02/27 08:31:14;;;;;;;13.32;6.05;;;1.60;99.90;;;;;;5105911;28;20043;-70
2024/02/27 08:33:41;;;;;;;12.75;8.18;;;1.70;99.90;;;;;;5107807;28;20048;-67
2024/02/27 08:36:09;;;;;;;11.82;7.40;;;1.60;99.90;;;;;;5110427;28;20579;-64
2024/02/27 08:38:36;;;;;;;13.30;7.57;;;1.60;99.90;;;;;;5104738;28;20130;-63
2024/02/27 08:41:03;;;;;;;14.60;7.30;;;1.70;99.90;;;;;;5107075;28;20051;-63
2024/02/27 08:43:30;;;;;;;15.55;9.20;;;1.70;99.90;;;;;;5109932;28;20040;-62
2024/02/27 08:45:59;;;;;;;13.82;7.75;;;1.70;99.90;;;;;;5109406;28;20052;-64
2024/02/27 08:48:26;;;;;;;13.88;7.97;;;1.70;99.90;;;;;;5090429;28;20066;-61
2024/02/27 08:50:53;;;;;;;15.80;8.10;;;1.80;99.90;;;;;;5105080;28;20126;-62
2024/02/27 08:53:22;;;;;;;14.80;8.30;;;1.90;99.90;;;;;;5106525;28;20463;-69
2024/02/27 08:55:49;;;;;;;17.98;9.65;;;1.90;99.90;;;;;;5107696;28;20043;-61
2024/02/27 08:58:16;;;;;;;16.35;9.73;;;1.90;99.90;;;;;;5106867;28;20135;-61
2024/02/27 09:00:43;;;;;;;19.13;9.65;;;1.90;99.90;;;;;;5109654;28;20044;-70
2024/02/27 09:03:10;;;;;;;16.25;9.60;;;2.00;99.90;;;;;;5091304;28;20407;-63
2024/02/27 09:05:37;;;;;;;17.40;12.00;;;2.00;99.90;;;;;;5106805;28;20044;-68
2024/02/27 09:08:04;;;;;;;21.08;10.63;;;2.00;99.90;;;;;;5109874;28;20545;-66
2024/02/27 09:10:31;;;;;;;15.27;8.52;;;2.10;99.90;;;;;;5109923;28;20127;-61
2024/02/27 09:12:58;;;;;;;14.77;9.85;;;2.10;99.90;;;;;;5108174;28;20071;-61
2024/02/27 09:15:25;;;;;;;16.67;9.75;;;2.10;99.90;;;;;;5109445;28;20117;-63
2024/02/27 09:17:52;;;;;;;17.30;9.82;;;2.10;99.90;;;;;;5104241;28;20063;-62
2024/02/27 09:20:19;;;;;;;14.85;9.88;;;2.10;99.90;;;;;;5109658;28;20101;-62
2024/02/27 09:22:46;;;;;;;16.27;10.27;;;2.00;99.90;;;;;;5109491;28;20120;-67
2024/02/27 09:25:13;;;;;;;12.75;9.60;;;2.00;99.90;;;;;;5109164;28;20043;-62
2024/02/27 09:27:40;;;;;;;13.98;9.80;;;1.90;99.90;;;;;;5109984;28;20040;-61
2024/02/27 09:30:08;;;;;;;14.65;9.52;;;2.00;99.90;;;;;;5106877;28;20520;-64
2024/02/27 09:32:35;;;;;;;13.10;9.30;;;1.90;99.90;;;;;;5107834;28;20104;-64
2024/02/27 09:35:03;;;;;;;16.15;9.73;;;2.00;99.90;;;;;;5109563;28;20043;-66
2024/02/27 09:37:30;;;;;;;18.15;10.80;;;2.00;99.90;;;;;;5108163;28;20043;-68
2024/02/27 09:39:57;;;;;;;15.13;10.60;;;2.00;99.90;;;;;;5110251;28;20055;-62
2024/02/27 09:42:30;;;;;;;13.18;9.10;;;2.10;99.90;;;;;;5112816;28;20495;-62
2024/02/27 09:45:05;;;;;;;13.32;9.63;;;2.10;99.90;;;;;;5107582;28;20031;-61
2024/02/27 09:47:47;;;;;;;16.55;9.55;;;2.20;99.90;;;;;;5109721;28;20466;-64
2024/02/27 09:50:18;;;;;;;13.88;8.85;;;2.20;99.90;;;;;;5112364;28;20047;-63
2024/02/27 09:52:50;;;;;;;16.15;9.95;;;2.10;99.90;;;;;;5111776;28;20057;-61
2024/02/27 09:55:21;;;;;;;13.60;9.05;;;2.00;99.90;;;;;;5111463;28;20043;-66
2024/02/27 09:57:49;;;;;;;15.05;9.68;;;2.10;99.90;;;;;;5110849;28;20054;-60
2024/02/27 10:00:17;;;;;;;12.55;8.63;;;2.10;99.90;;;;;;5110246;28;20407;-60
2024/02/27 10:02:55;;;;;;;13.27;9.75;;;2.20;99.90;;;;;;5111875;28;20076;-65
2024/02/27 10:05:22;;;;;;;13.35;9.40;;;2.20;99.90;;;;;;5111334;28;20048;-65
2024/02/27 10:07:50;;;;;;;12.20;9.05;;;2.20;99.90;;;;;;5089606;28;20127;-61
2024/02/27 10:10:18;;;;;;;15.30;10.20;;;2.30;99.90;;;;;;5108722;28;20055;-62
2024/02/27 10:12:46;;;;;;;13.02;9.38;;;2.30;99.90;;;;;;5111354;28;20051;-63
2024/02/27 10:15:14;;;;;;;18.50;10.82;;;2.20;99.90;;;;;;5112474;28;20474;-62
2024/02/27 10:17:43;;;;;;;12.88;8.82;;;2.20;99.90;;;;;;5110992;28;20044;-60
2024/02/27 10:20:17;;;;;;;12.85;10.10;;;2.20;99.90;;;;;;5106490;28;20068;-62
2024/02/27 10:22:44;;;;;;;15.50;10.43;;;2.30;99.90;;;;;;5110872;28;20096;-66
2024/02/27 10:25:14;;;;;;;14.55;10.38;;;2.30;99.90;;;;;;5110130;28;20051;-61
2024/02/27 10:27:42;;;;;;;;;;;2.30;99.90;;;;;;5111805;28;20048;-60
2024/02/27 10:30:10;;;;;;;14.00;9.13;;;2.10;99.90;;;;;;5112068;28;20343;-62
2024/02/27 10:32:42;;;;;;;14.82;9.60;;;2.20;99.90;;;;;;5110411;28;20124;-64
2024/02/27 10:35:13;;;;;;;12.95;9.43;;;2.20;99.90;;;;;;5108409;28;20042;-62
2024/02/27 10:37:41;;;;;;;14.82;9.23;;;2.20;99.90;;;;;;5109829;28;20443;-61
2024/02/27 10:40:10;;;;;;;11.63;8.65;;;2.20;99.90;;;;;;5110356;28;20040;-61
2024/02/27 10:42:40;;;;;;;12.02;9.20;;;2.30;99.90;;;;;;5109288;28;20513;-63
2024/02/27 10:45:09;;;;;;;12.52;7.97;;;2.30;99.90;;;;;;5112153;28;20425;-61
2024/02/27 10:47:36;;;;;;;9.32;7.72;;;2.30;99.90;;;;;;5110447;28;20131;-63
2024/02/27 10:50:08;;;;;;;11.32;7.95;;;2.30;99.90;;;;;;5109725;28;20376;-67
2024/02/27 10:52:36;;;;;;;11.70;8.20;;;2.30;99.90;;;;;;5111322;28;20101;-63
2024/02/27 10:55:03;;;;;;;9.02;7.43;;;2.30;99.90;;;;;;5112277;28;20053;-61
2024/02/27 10:57:34;;;;;;;11.20;8.65;;;2.30;99.90;;;;;;5109699;28;20077;-67
2024/02/27 11:00:02;;;;;;;11.40;8.50;;;2.40;99.90;;;;;;5107047;28;20108;-61
2024/02/27 11:02:31;;;;;;;10.55;8.38;;;2.40;99.90;;;;;;5092999;28;20047;-63
2024/02/27 11:05:01;;;;;;;10.05;8.23;;;2.40;99.90;;;;;;5105425;28;20047;-61
2024/02/27 11:07:29;;;;;;;10.65;9.15;;;2.30;99.90;;;;;;5108940;28;20058;-62
2024/02/27 11:09:58;;;;;;;9.75;7.55;;;2.40;99.90;;;;;;5109189;28;20300;-62
2024/02/27 11:12:27;;;;;;;9.82;8.25;;;2.40;99.90;;;;;;5110246;28;20392;-61
2024/02/27 11:15:03;;;;;;;10.98;8.65;;;2.50;99.90;;;;;;5106401;28;20047;-62
2024/02/27 11:17:37;;;;;;;8.15;6.50;;;2.60;99.90;;;;;;5110688;28;20040;-62
2024/02/27 11:20:06;;;;;;;10.77;7.80;;;2.50;99.90;;;;;;5107771;28;20050;-62
2024/02/27 11:22:35;;;;;;;12.70;7.30;;;2.50;99.90;;;;;;5109737;28;20043;-64
2024/02/27 11:25:03;;;;;;;10.63;8.95;;;2.50;99.90;;;;;;5109688;28;20040;-62
2024/02/27 11:27:31;;;;;;;10.13;7.22;;;2.50;99.90;;;;;;5107931;28;20051;-60
2024/02/27 11:29:59;;;;;;;10.07;7.50;;;2.50;99.90;;;;;;5106444;28;20523;-62
2024/02/27 11:32:26;;;;;;;9.25;7.82;;;2.60;99.90;;;;;;5109603;28;20055;-60
2024/02/27 11:34:53;;;;;;;9.27;6.88;;;2.60;99.90;;;;;;5109774;28;20040;-60
2024/02/27 11:37:22;;;;;;;8.43;6.97;;;2.60;99.90;;;;;;5106429;28;20521;-65
2024/02/27 11:39:49;;;;;;;9.98;6.50;;;2.70;99.90;;;;;;5106830;28;20765;-61
2024/02/27 11:42:36;;;;;;;11.00;7.60;;;2.70;99.90;;;;;;5107711;28;20039;-61
2024/02/27 11:45:07;;;;;;;11.10;7.78;;;2.80;99.90;;;;;;5106715;28;20491;-61
2024/02/27 11:47:44;;;;;;;11.25;8.20;;;2.80;99.90;;;;;;5106175;28;20067;-66
2024/02/27 11:50:12;;;;;;;7.53;6.45;;;2.80;99.90;;;;;;5109022;28;20039;-60
2024/02/27 11:52:42;;;;;;;10.43;7.05;;;2.80;99.90;;;;;;5110123;28;20445;-65
2024/02/27 11:55:11;;;;;;;9.55;8.25;;;2.80;99.90;;;;;;5106541;28;20071;-64
2024/02/27 11:57:38;;;;;;;8.25;6.68;;;2.80;99.90;;;;;;5105437;28;20043;-66
2024/02/27 12:00:16;;;;;;;8.82;7.63;;;2.70;99.90;;;;;;5100930;28;20048;-61
2024/02/27 12:02:50;;;;;;;9.45;6.78;;;2.80;99.90;;;;;;5102160;28;20119;-62
2024/02/27 12:05:18;;;;;;;10.25;7.25;;;2.80;99.90;;;;;;5104936;28;20045;-62
2024/02/27 12:07:45;;;;;;;12.88;9.98;;;2.80;99.90;;;;;;5104012;28;20047;-60
2024/02/27 12:10:14;;;;;;;10.63;8.05;;;2.80;99.90;;;;;;5084922;28;20398;-60
2024/02/27 12:12:41;;;;;;;20.63;8.40;;;2.80;99.90;;;;;;5105892;28;20372;-62
2024/02/27 12:15:09;;;;;;;14.40;8.27;;;2.90;99.90;;;;;;5105996;28;20039;-61
2024/02/27 12:17:37;;;;;;;7.88;6.80;;;2.90;99.90;;;;;;5106808;28;20050;-63
2024/02/27 12:20:05;;;;;;;11.15;7.40;;;2.90;99.90;;;;;;5108537;28;20043;-60
2024/02/27 12:22:45;;;;;;;9.05;6.75;;;2.90;99.90;;;;;;5109325;28;20134;-61
2024/02/27 12:25:15;;;;;;;8.45;6.30;;;2.70;99.90;;;;;;5103608;28;20466;-63
2024/02/27 12:27:45;;;;;;;8.18;6.70;;;2.70;99.90;;;;;;5107260;28;20050;-62
2024/02/27 12:30:13;;;;;;;16.40;7.05;;;2.70;99.90;;;;;;5107843;28;20035;-61
2024/02/27 12:32:42;;;;;;;19.55;7.93;;;2.60;99.90;;;;;;5109045;28;20588;-62
2024/02/27 12:35:14;;;;;;;13.07;7.57;;;2.60;99.90;;;;;;5103418;28;20503;-66
2024/02/27 12:37:48;;;;;;;13.55;7.38;;;2.70;99.90;;;;;;5104995;28;20032;-63
2024/02/27 12:40:19;;;;;;;31.80;12.30;;;2.60;99.90;;;;;;5109177;28;20390;-61
2024/02/27 12:42:49;;;;;;;12.40;6.65;;;2.60;99.90;;;;;;5102025;28;20043;-60
2024/02/27 12:45:18;;;;;;;17.27;8.10;;;2.60;99.90;;;;;;5108716;28;20052;-61
2024/02/27 12:47:50;;;;;;;8.98;6.75;;;2.70;99.90;;;;;;5109637;28;20178;-63
2024/02/27 12:50:22;;;;;;;11.10;7.35;;;2.70;99.90;;;;;;5108614;28;20096;-60
2024/02/27 12:52:53;;;;;;;15.40;7.82;;;2.70;99.90;;;;;;5109584;28;20128;-63
2024/02/27 12:55:35;;;;;;;9.18;6.85;;;2.70;99.90;;;;;;5109142;28;20048;-61